createdAt,value
2017-08-13T00:00:21.434Z,15.50
2017-08-13T00:02:48.875Z,15.50
2017-08-13T00:05:16.291Z,15.50
2017-08-13T00:07:43.699Z,15.50
2017-08-13T00:10:11.121Z,15.50
2017-08-13T00:12:38.534Z,15.50
2017-08-13T00:15:05.950Z,15.50
2017-08-13T00:17:33.365Z,15.40
2017-08-13T00:20:00.778Z,15.40
2017-08-13T00:22:28.195Z,15.40
2017-08-13T00:24:55.613Z,15.40
2017-08-13T00:27:23.897Z,15.40
2017-08-13T00:29:51.317Z,15.50
2017-08-13T00:32:18.731Z,15.50
2017-08-13T00:34:46.153Z,15.50
2017-08-13T00:37:13.565Z,15.50
2017-08-13T00:39:40.982Z,15.60
2017-08-13T00:42:08.401Z,15.60
2017-08-13T00:44:35.812Z,15.50
2017-08-13T00:47:03.235Z,15.50
2017-08-13T00:49:31.461Z,15.50
2017-08-13T00:52:00.372Z,15.50
2017-08-13T00:54:27.790Z,15.60
2017-08-13T00:56:55.230Z,15.60
2017-08-13T00:59:22.659Z,15.60
2017-08-13T01:01:51.374Z,15.60
2017-08-13T01:04:18.794Z,15.60
2017-08-13T01:06:46.206Z,15.60
2017-08-13T01:09:13.618Z,15.70
2017-08-13T01:11:41.035Z,15.60
2017-08-13T01:14:08.467Z,15.60
2017-08-13T01:16:35.870Z,15.70
2017-08-13T01:19:03.293Z,15.70
2017-08-13T01:21:31.470Z,15.90
2017-08-13T01:23:58.906Z,15.90
2017-08-13T01:26:26.318Z,15.90
2017-08-13T01:28:53.731Z,15.80
2017-08-13T01:31:21.145Z,15.60
2017-08-13T01:33:48.562Z,15.60
2017-08-13T01:36:15.982Z,15.60
2017-08-13T01:38:43.396Z,15.60
2017-08-13T01:41:10.814Z,15.60
2017-08-13T01:43:38.993Z,15.60
2017-08-13T01:46:06.429Z,15.70
2017-08-13T01:48:33.842Z,15.70
2017-08-13T01:51:01.254Z,15.70
2017-08-13T01:53:29.840Z,15.60
2017-08-13T01:55:57.250Z,15.70
2017-08-13T01:58:24.666Z,15.60
2017-08-13T02:00:52.842Z,15.50
2017-08-13T02:03:20.257Z,15.40
2017-08-13T02:05:47.677Z,15.50
2017-08-13T02:08:15.093Z,15.40
2017-08-13T02:10:42.509Z,15.40
2017-08-13T02:13:09.941Z,15.30
2017-08-13T02:15:38.034Z,15.30
2017-08-13T02:18:05.438Z,15.30
2017-08-13T02:20:32.861Z,15.30
2017-08-13T02:23:00.278Z,15.40
2017-08-13T02:25:27.994Z,15.40
2017-08-13T02:27:55.410Z,15.50
2017-08-13T02:30:22.830Z,15.50
2017-08-13T02:32:51.022Z,15.50
2017-08-13T02:35:18.971Z,15.50
2017-08-13T02:37:46.390Z,15.50
2017-08-13T02:40:14.758Z,15.50
2017-08-13T02:42:42.177Z,15.50
2017-08-13T02:45:10.283Z,15.50
2017-08-13T02:47:37.703Z,15.50
2017-08-13T02:50:05.110Z,15.50
2017-08-13T02:52:32.518Z,15.50
2017-08-13T02:55:02.966Z,15.60
2017-08-13T02:57:30.365Z,15.50
2017-08-13T02:59:57.800Z,15.60
2017-08-13T03:02:25.206Z,15.60
2017-08-13T03:04:52.700Z,15.60
2017-08-13T03:07:20.130Z,15.60
2017-08-13T03:09:48.420Z,15.60
2017-08-13T03:12:15.838Z,15.70
2017-08-13T03:14:44.006Z,15.70
2017-08-13T03:17:12.190Z,15.70
2017-08-13T03:19:39.605Z,15.70
2017-08-13T03:22:07.032Z,15.70
2017-08-13T03:24:35.461Z,15.60
2017-08-13T03:27:02.874Z,15.60
2017-08-13T03:29:30.291Z,15.50
2017-08-13T03:31:58.470Z,15.70
2017-08-13T03:34:26.670Z,15.70
2017-08-13T03:36:54.077Z,15.70
2017-08-13T03:39:21.496Z,15.70
2017-08-13T03:41:48.910Z,15.70
2017-08-13T03:44:16.330Z,15.70
2017-08-13T03:46:43.752Z,15.80
2017-08-13T03:49:11.169Z,15.80
2017-08-13T03:51:38.583Z,15.80
2017-08-13T03:54:05.994Z,15.80
2017-08-13T03:56:33.434Z,15.80
2017-08-13T03:59:00.851Z,15.90
2017-08-13T04:01:28.261Z,15.90
2017-08-13T04:03:55.677Z,15.80
2017-08-13T04:06:23.081Z,15.90
2017-08-13T04:08:50.502Z,15.90
2017-08-13T04:11:18.427Z,16.00
2017-08-13T04:13:46.671Z,16.00
2017-08-13T04:16:14.850Z,15.90
2017-08-13T04:18:42.261Z,15.90
2017-08-13T04:21:09.923Z,15.90
2017-08-13T04:23:37.318Z,15.90
2017-08-13T04:26:04.738Z,15.90
2017-08-13T04:28:32.148Z,15.90
2017-08-13T04:30:59.558Z,15.90
2017-08-13T04:33:26.974Z,16.00
2017-08-13T04:35:54.389Z,15.90
2017-08-13T04:38:21.803Z,15.90
2017-08-13T04:40:49.226Z,15.90
2017-08-13T04:43:16.634Z,15.90
2017-08-13T04:45:44.041Z,16.00
2017-08-13T04:48:11.466Z,16.00
2017-08-13T04:50:38.877Z,16.00
2017-08-13T04:53:06.302Z,16.00
2017-08-13T04:55:33.711Z,16.00
2017-08-13T04:58:01.142Z,16.00
2017-08-13T05:00:28.551Z,16.00
2017-08-13T05:02:56.746Z,16.10
2017-08-13T05:05:24.150Z,16.10
2017-08-13T05:07:51.592Z,16.10
2017-08-13T05:10:18.979Z,16.10
2017-08-13T05:12:46.394Z,16.10
2017-08-13T05:15:13.814Z,16.10
2017-08-13T05:17:41.229Z,16.10
2017-08-13T05:20:08.654Z,16.20
2017-08-13T05:22:38.003Z,16.20
2017-08-13T05:25:06.331Z,16.40
2017-08-13T05:27:33.739Z,16.40
2017-08-13T05:30:01.155Z,16.40
2017-08-13T05:32:28.577Z,16.40
2017-08-13T05:34:55.986Z,16.30
2017-08-13T05:37:23.410Z,16.20
2017-08-13T05:39:50.830Z,16.10
2017-08-13T05:42:18.253Z,16.20
2017-08-13T05:44:45.669Z,16.30
2017-08-13T05:47:13.109Z,16.40
2017-08-13T05:49:40.513Z,16.40
2017-08-13T05:52:07.930Z,16.30
2017-08-13T05:54:35.345Z,16.30
2017-08-13T05:57:02.758Z,16.40
2017-08-13T05:59:30.181Z,16.50
2017-08-13T06:01:58.817Z,16.60
2017-08-13T06:04:26.218Z,16.60
2017-08-13T06:06:54.390Z,16.70
2017-08-13T06:09:21.831Z,16.70
2017-08-13T06:11:49.257Z,16.70
2017-08-13T06:14:16.666Z,16.70
2017-08-13T06:16:44.079Z,16.70
2017-08-13T06:19:11.489Z,17.00
2017-08-13T06:21:40.446Z,18.30
2017-08-13T06:24:07.853Z,18.30
2017-08-13T06:26:35.271Z,18.90
2017-08-13T06:29:03.473Z,19.10
2017-08-13T06:31:31.570Z,19.30
2017-08-13T06:33:58.987Z,19.60
2017-08-13T06:36:27.030Z,19.70
2017-08-13T06:38:54.453Z,19.80
2017-08-13T06:41:21.866Z,19.50
2017-08-13T06:43:50.051Z,18.80
2017-08-13T06:46:18.222Z,18.60
2017-08-13T06:48:45.642Z,18.60
2017-08-13T06:51:13.054Z,18.50
2017-08-13T06:53:40.495Z,18.80
2017-08-13T06:56:09.103Z,18.90
2017-08-13T06:58:37.323Z,19.00
2017-08-13T07:01:04.762Z,18.90
2017-08-13T07:03:32.178Z,18.70
2017-08-13T07:05:59.582Z,19.20
2017-08-13T07:08:27.014Z,20.30
2017-08-13T07:10:54.427Z,21.40
2017-08-13T07:13:22.602Z,22.90
2017-08-13T07:15:50.798Z,23.40
2017-08-13T07:18:18.218Z,23.30
2017-08-13T07:20:45.626Z,23.40
2017-08-13T07:23:13.041Z,22.40
2017-08-13T07:25:41.215Z,21.90
2017-08-13T07:28:09.396Z,22.70
2017-08-13T07:30:37.574Z,23.10
2017-08-13T07:33:04.990Z,23.10
2017-08-13T07:35:32.394Z,23.10
2017-08-13T07:37:59.825Z,23.10
2017-08-13T07:40:28.009Z,22.50
2017-08-13T07:42:56.186Z,22.30
2017-08-13T07:45:23.602Z,22.30
2017-08-13T07:47:51.026Z,21.90
2017-08-13T07:50:18.442Z,22.50
2017-08-13T07:52:46.621Z,24.30
2017-08-13T07:55:14.814Z,25.20
2017-08-13T07:57:43.193Z,25.20
2017-08-13T08:00:10.605Z,25.80
2017-08-13T08:02:38.036Z,24.90
2017-08-13T08:05:05.446Z,24.20
2017-08-13T08:07:33.626Z,24.60
2017-08-13T08:10:01.038Z,24.60
2017-08-13T08:12:28.459Z,25.10
2017-08-13T08:14:55.882Z,25.20
2017-08-13T08:17:24.071Z,25.20
2017-08-13T08:19:52.174Z,25.20
2017-08-13T08:22:19.598Z,25.40
2017-08-13T08:24:47.010Z,25.10
2017-08-13T08:27:14.446Z,24.90
2017-08-13T08:29:41.870Z,24.60
2017-08-13T08:32:09.297Z,24.10
2017-08-13T08:34:37.486Z,23.90
2017-08-13T08:37:05.669Z,24.30
2017-08-13T08:39:33.843Z,24.50
2017-08-13T08:42:01.254Z,24.50
2017-08-13T08:44:28.667Z,24.40
2017-08-13T08:46:56.082Z,24.10
2017-08-13T08:49:23.510Z,23.80
2017-08-13T08:51:50.926Z,23.60
2017-08-13T08:54:19.139Z,24.20
2017-08-13T08:56:46.546Z,25.00
2017-08-13T08:59:15.272Z,24.80
2017-08-13T09:01:42.690Z,24.80
2017-08-13T09:04:10.866Z,24.30
2017-08-13T09:06:39.046Z,24.30
2017-08-13T09:09:06.454Z,24.30
2017-08-13T09:11:33.890Z,24.00
2017-08-13T09:14:01.299Z,22.90
2017-08-13T09:16:28.737Z,22.50
2017-08-13T09:18:57.265Z,22.80
2017-08-13T09:21:24.700Z,23.80
2017-08-13T09:23:53.671Z,26.00
2017-08-13T09:26:21.093Z,26.00
2017-08-13T09:28:48.494Z,26.60
2017-08-13T09:31:17.362Z,27.20
2017-08-13T09:33:44.790Z,27.20
2017-08-13T09:36:12.199Z,27.90
2017-08-13T09:38:40.378Z,26.90
2017-08-13T09:41:08.554Z,27.40
2017-08-13T09:43:36.981Z,28.40
2017-08-13T09:46:04.366Z,28.40
2017-08-13T09:48:31.790Z,28.90
2017-08-13T09:50:59.210Z,29.20
2017-08-13T09:53:26.622Z,29.10
2017-08-13T09:55:54.030Z,28.30
2017-08-13T09:58:22.125Z,27.20
2017-08-13T10:00:49.534Z,26.40
2017-08-13T10:03:18.714Z,26.70
2017-08-13T10:05:46.809Z,26.70
2017-08-13T10:08:15.000Z,27.70
2017-08-13T10:10:42.407Z,27.70
2017-08-13T10:13:09.817Z,27.60
2017-08-13T10:15:37.226Z,28.10
2017-08-13T10:18:04.646Z,28.10
2017-08-13T10:20:32.080Z,27.90
2017-08-13T10:22:59.486Z,28.30
2017-08-13T10:25:26.911Z,28.60
2017-08-13T10:27:54.326Z,28.70
2017-08-13T10:30:22.516Z,28.60
2017-08-13T10:32:50.682Z,29.50
2017-08-13T10:35:18.098Z,29.50
2017-08-13T10:37:45.550Z,30.60
2017-08-13T10:40:12.958Z,30.40
2017-08-13T10:42:40.374Z,30.00
2017-08-13T10:45:07.788Z,29.40
2017-08-13T10:47:35.943Z,29.10
2017-08-13T10:50:03.357Z,29.50
2017-08-13T10:52:30.780Z,30.30
2017-08-13T10:54:58.190Z,31.00
2017-08-13T10:57:26.375Z,31.40
2017-08-13T10:59:54.547Z,31.70
2017-08-13T11:02:22.735Z,32.10
2017-08-13T11:04:50.142Z,32.00
2017-08-13T11:07:17.559Z,31.60
2017-08-13T11:09:45.796Z,30.90
2017-08-13T11:12:13.207Z,30.00
2017-08-13T11:14:41.272Z,29.50
2017-08-13T11:17:09.457Z,29.70
2017-08-13T11:19:37.231Z,29.80
2017-08-13T11:22:04.614Z,29.90
2017-08-13T11:24:32.029Z,30.50
2017-08-13T11:26:59.446Z,31.00
2017-08-13T11:29:27.639Z,29.50
2017-08-13T11:31:55.773Z,29.50
2017-08-13T11:34:23.190Z,29.20
2017-08-13T11:36:50.605Z,29.70
2017-08-13T11:39:18.026Z,30.00
2017-08-13T11:41:45.756Z,30.70
2017-08-13T11:44:13.166Z,30.80
2017-08-13T11:46:41.370Z,31.90
2017-08-13T11:49:08.782Z,31.80
2017-08-13T11:51:36.194Z,31.90
2017-08-13T11:54:03.613Z,32.30
2017-08-13T11:56:32.468Z,33.10
2017-08-13T11:59:00.534Z,33.10
2017-08-13T12:01:28.731Z,33.20
2017-08-13T12:03:56.152Z,33.20
2017-08-13T12:06:23.554Z,32.80
2017-08-13T12:08:51.742Z,31.90
2017-08-13T12:11:19.918Z,32.10
2017-08-13T12:13:47.342Z,32.10
2017-08-13T12:16:14.752Z,32.30
2017-08-13T12:18:42.849Z,32.10
2017-08-13T12:21:10.266Z,32.00
2017-08-13T12:23:37.674Z,32.20
2017-08-13T12:26:05.098Z,32.50
2017-08-13T12:28:32.510Z,32.80
2017-08-13T12:31:00.696Z,32.80
2017-08-13T12:33:29.761Z,32.30
2017-08-13T12:35:57.189Z,32.30
2017-08-13T12:38:24.599Z,32.00
2017-08-13T12:40:52.781Z,32.20
2017-08-13T12:43:20.455Z,32.30
2017-08-13T12:45:47.857Z,32.50
2017-08-13T12:48:15.274Z,32.40
2017-08-13T12:50:42.682Z,32.00
2017-08-13T12:53:10.106Z,31.30
2017-08-13T12:55:37.514Z,30.80
2017-08-13T12:58:04.934Z,30.50
2017-08-13T13:00:32.348Z,30.80
2017-08-13T13:02:59.750Z,31.20
2017-08-13T13:05:27.770Z,31.20
2017-08-13T13:07:55.198Z,31.00
2017-08-13T13:10:23.379Z,29.10
2017-08-13T13:12:51.558Z,28.60
2017-08-13T13:15:19.738Z,28.40
2017-08-13T13:17:47.154Z,28.40
2017-08-13T13:20:14.567Z,28.00
2017-08-13T13:22:41.991Z,27.40
2017-08-13T13:25:10.170Z,27.40
2017-08-13T13:27:38.375Z,28.30
2017-08-13T13:30:05.791Z,28.30
2017-08-13T13:32:33.201Z,29.10
2017-08-13T13:35:00.618Z,29.80
2017-08-13T13:37:28.794Z,30.30
2017-08-13T13:39:56.206Z,30.30
2017-08-13T13:42:23.622Z,29.50
2017-08-13T13:44:51.054Z,28.70
2017-08-13T13:47:19.231Z,28.40
2017-08-13T13:49:47.416Z,29.10
2017-08-13T13:52:14.836Z,29.00
2017-08-13T13:54:42.238Z,29.50
2017-08-13T13:57:09.662Z,29.90
2017-08-13T13:59:37.071Z,30.20
2017-08-13T14:02:05.057Z,30.80
2017-08-13T14:04:32.473Z,31.40
2017-08-13T14:06:59.886Z,31.90
2017-08-13T14:09:27.311Z,31.90
2017-08-13T14:11:55.658Z,32.20
2017-08-13T14:14:23.057Z,32.50
2017-08-13T14:16:50.471Z,32.90
2017-08-13T14:19:17.882Z,33.50
2017-08-13T14:21:45.415Z,32.60
2017-08-13T14:24:12.837Z,31.60
2017-08-13T14:26:40.249Z,30.60
2017-08-13T14:29:07.667Z,29.70
2017-08-13T14:31:35.078Z,28.90
2017-08-13T14:34:02.497Z,28.50
2017-08-13T14:36:29.911Z,28.20
2017-08-13T14:38:57.331Z,27.80
2017-08-13T14:41:24.742Z,27.80
2017-08-13T14:43:52.154Z,27.80
2017-08-13T14:46:22.779Z,27.80
2017-08-13T14:48:50.196Z,28.00
2017-08-13T14:51:17.606Z,28.80
2017-08-13T14:53:45.781Z,31.20
2017-08-13T14:56:13.967Z,32.10
2017-08-13T14:58:41.376Z,32.00
2017-08-13T15:01:08.792Z,32.70
2017-08-13T15:03:37.778Z,34.20
2017-08-13T15:06:05.198Z,34.20
2017-08-13T15:08:33.090Z,34.80
2017-08-13T15:11:00.502Z,35.30
2017-08-13T15:13:27.914Z,35.20
2017-08-13T15:15:55.342Z,34.60
2017-08-13T15:18:22.758Z,34.80
2017-08-13T15:20:50.729Z,35.10
2017-08-13T15:23:18.157Z,34.60
2017-08-13T15:25:46.203Z,34.20
2017-08-13T15:28:14.386Z,34.90
2017-08-13T15:30:42.555Z,35.20
2017-08-13T15:33:10.745Z,35.40
2017-08-13T15:35:38.918Z,35.40
2017-08-13T15:38:07.153Z,35.40
2017-08-13T15:40:34.575Z,35.40
2017-08-13T15:43:01.999Z,35.50
2017-08-13T15:45:30.192Z,34.40
2017-08-13T15:47:57.608Z,34.40
2017-08-13T15:50:25.026Z,33.60
2017-08-13T15:52:52.453Z,33.30
2017-08-13T15:55:19.872Z,33.60
2017-08-13T15:57:47.270Z,34.20
2017-08-13T16:00:14.699Z,34.40
2017-08-13T16:02:42.880Z,34.50
2017-08-13T16:05:11.057Z,34.20
2017-08-13T16:07:39.242Z,34.10
2017-08-13T16:10:06.651Z,34.10
2017-08-13T16:12:34.062Z,34.20
2017-08-13T16:15:01.486Z,34.30
2017-08-13T16:17:29.658Z,33.80
2017-08-13T16:19:57.834Z,33.60
2017-08-13T16:22:26.026Z,33.60
2017-08-13T16:24:54.235Z,33.50
2017-08-13T16:27:22.535Z,33.50
2017-08-13T16:29:49.946Z,32.90
2017-08-13T16:32:17.732Z,32.60
2017-08-13T16:34:45.142Z,32.20
2017-08-13T16:37:13.330Z,30.60
2017-08-13T16:39:40.764Z,30.70
2017-08-13T16:42:08.943Z,29.40
2017-08-13T16:44:37.114Z,28.90
2017-08-13T16:47:05.305Z,28.70
2017-08-13T16:49:33.483Z,28.40
2017-08-13T16:52:00.900Z,28.40
2017-08-13T16:54:28.298Z,28.20
2017-08-13T16:56:55.719Z,27.90
2017-08-13T16:59:23.121Z,27.60
2017-08-13T17:01:50.562Z,27.30
2017-08-13T17:04:17.966Z,27.10
2017-08-13T17:06:45.386Z,26.80
2017-08-13T17:09:12.794Z,26.60
2017-08-13T17:11:40.207Z,26.00
2017-08-13T17:14:07.630Z,25.30
2017-08-13T17:16:35.831Z,25.10
2017-08-13T17:19:03.249Z,25.10
2017-08-13T17:21:30.654Z,24.90
2017-08-13T17:23:58.065Z,24.90
2017-08-13T17:26:25.494Z,24.70
2017-08-13T17:28:52.898Z,24.50
2017-08-13T17:31:20.314Z,24.50
2017-08-13T17:33:47.730Z,24.30
2017-08-13T17:36:15.134Z,24.30
2017-08-13T17:38:42.558Z,24.10
2017-08-13T17:41:09.975Z,24.00
2017-08-13T17:43:38.150Z,23.70
2017-08-13T17:46:05.558Z,23.70
2017-08-13T17:48:33.770Z,23.20
2017-08-13T17:51:01.945Z,22.90
2017-08-13T17:53:30.139Z,22.90
2017-08-13T17:55:57.558Z,22.80
2017-08-13T17:58:24.971Z,22.70
2017-08-13T18:00:52.380Z,22.70
2017-08-13T18:03:21.253Z,22.70
2017-08-13T18:05:48.672Z,22.60
2017-08-13T18:08:16.078Z,22.60
2017-08-13T18:10:45.774Z,22.50
2017-08-13T18:13:13.582Z,22.50
2017-08-13T18:15:40.994Z,22.40
2017-08-13T18:18:08.656Z,22.30
2017-08-13T18:20:36.053Z,22.20
2017-08-13T18:23:03.454Z,22.10
2017-08-13T18:25:30.874Z,21.90
2017-08-13T18:27:58.277Z,21.70
2017-08-13T18:30:26.701Z,21.60
2017-08-13T18:32:54.118Z,21.40
2017-08-13T18:35:21.531Z,21.20
2017-08-13T18:37:48.953Z,21.00
2017-08-13T18:40:17.121Z,20.70
2017-08-13T18:42:45.318Z,20.30
2017-08-13T18:45:12.727Z,20.30
2017-08-13T18:47:40.154Z,20.00
2017-08-13T18:50:07.561Z,19.80
2017-08-13T18:52:35.750Z,19.10
2017-08-13T18:55:03.170Z,19.10
2017-08-13T18:57:30.588Z,18.80
2017-08-13T18:59:58.002Z,18.50
2017-08-13T19:02:26.183Z,17.90
2017-08-13T19:04:54.366Z,17.70
2017-08-13T19:07:21.781Z,17.70
2017-08-13T19:09:49.187Z,17.60
2017-08-13T19:12:16.616Z,17.50
2017-08-13T19:14:44.017Z,17.40
2017-08-13T19:17:11.430Z,17.30
2017-08-13T19:19:38.845Z,17.10
2017-08-13T19:22:06.294Z,17.10
2017-08-13T19:24:33.698Z,17.00
2017-08-13T19:27:01.116Z,16.90
2017-08-13T19:29:28.538Z,16.60
2017-08-13T19:31:55.951Z,16.30
2017-08-13T19:34:25.162Z,16.10
2017-08-13T19:36:53.335Z,16.00
2017-08-13T19:39:20.749Z,15.90
2017-08-13T19:41:48.178Z,15.90
2017-08-13T19:44:15.585Z,16.00
2017-08-13T19:46:55.092Z,15.90
2017-08-13T19:49:22.519Z,15.90
2017-08-13T19:51:49.931Z,15.80
2017-08-13T19:54:17.356Z,15.70
2017-08-13T19:56:45.015Z,15.70
2017-08-13T19:59:12.444Z,15.60
2017-08-13T20:01:39.852Z,15.50
2017-08-13T20:04:07.281Z,15.40
2017-08-13T20:06:34.686Z,15.40
2017-08-13T20:09:02.127Z,15.50
2017-08-13T20:11:29.530Z,15.40
2017-08-13T20:13:56.941Z,15.40
2017-08-13T20:16:24.358Z,15.40
2017-08-13T20:18:51.769Z,15.40
2017-08-13T20:21:19.546Z,15.40
2017-08-13T20:23:46.965Z,15.40
2017-08-13T20:26:14.378Z,15.50
2017-08-13T20:28:41.794Z,15.40
2017-08-13T20:31:09.213Z,15.30
2017-08-13T20:33:36.626Z,15.30
2017-08-13T20:36:04.130Z,15.20
2017-08-13T20:38:31.540Z,15.00
2017-08-13T20:40:58.963Z,15.00
2017-08-13T20:43:26.372Z,14.80
2017-08-13T20:45:53.819Z,14.70
2017-08-13T20:48:26.943Z,14.60
2017-08-13T20:50:54.382Z,14.60
2017-08-13T20:53:21.794Z,14.60
2017-08-13T20:55:49.211Z,14.60
2017-08-13T20:58:16.621Z,14.50
2017-08-13T21:00:44.044Z,14.40
2017-08-13T21:03:11.481Z,14.30
2017-08-13T21:05:38.885Z,14.30
2017-08-13T21:08:06.294Z,14.30
2017-08-13T21:10:33.710Z,14.40
2017-08-13T21:13:01.131Z,14.40
2017-08-13T21:15:28.575Z,14.50
2017-08-13T21:17:55.994Z,14.40
2017-08-13T21:20:23.415Z,14.30
2017-08-13T21:22:51.202Z,14.30
2017-08-13T21:25:18.639Z,14.30
2017-08-13T21:27:46.058Z,14.30
2017-08-13T21:30:14.364Z,14.30
2017-08-13T21:32:41.790Z,14.30
2017-08-13T21:35:09.198Z,14.30
2017-08-13T21:37:36.705Z,14.30
2017-08-13T21:40:04.131Z,14.20
2017-08-13T21:42:31.539Z,14.10
2017-08-13T21:44:58.950Z,14.00
2017-08-13T21:47:26.358Z,13.80
2017-08-13T21:49:53.778Z,13.70
2017-08-13T21:52:21.187Z,13.80
2017-08-13T21:54:49.374Z,14.00
2017-08-13T21:57:16.790Z,14.00
2017-08-13T21:59:44.225Z,14.00
2017-08-13T22:02:11.631Z,13.80
2017-08-13T22:04:39.061Z,13.80
2017-08-13T22:07:06.466Z,13.80
2017-08-13T22:09:33.886Z,13.80
2017-08-13T22:12:01.299Z,13.70
2017-08-13T22:14:28.734Z,13.70
2017-08-13T22:16:56.141Z,13.70
2017-08-13T22:19:23.555Z,13.70
2017-08-13T22:21:50.973Z,13.80
2017-08-13T22:24:19.153Z,13.90
2017-08-13T22:26:46.572Z,13.80
2017-08-13T22:29:14.009Z,13.80
2017-08-13T22:31:41.422Z,13.70
2017-08-13T22:34:09.603Z,13.70
2017-08-13T22:36:37.018Z,13.70
2017-08-13T22:39:04.432Z,13.60
2017-08-13T22:41:32.651Z,13.70
2017-08-13T22:44:00.068Z,13.60
2017-08-13T22:46:27.502Z,13.50
2017-08-13T22:48:54.918Z,13.60
2017-08-13T22:51:22.335Z,13.60
2017-08-13T22:53:49.763Z,13.70
2017-08-13T22:56:17.179Z,13.70
2017-08-13T22:58:45.654Z,13.70
2017-08-13T23:01:13.070Z,13.70
2017-08-13T23:03:40.485Z,13.60
2017-08-13T23:06:07.907Z,13.50
2017-08-13T23:08:35.322Z,13.50
2017-08-13T23:11:03.498Z,13.40
2017-08-13T23:13:30.921Z,13.40
2017-08-13T23:15:58.337Z,13.40
2017-08-13T23:18:26.957Z,13.40
2017-08-13T23:20:54.374Z,13.30
2017-08-13T23:23:21.815Z,13.20
2017-08-13T23:25:50.148Z,13.20
2017-08-13T23:28:17.562Z,13.10
2017-08-13T23:30:44.985Z,13.00
2017-08-13T23:33:12.402Z,13.00
2017-08-13T23:35:39.818Z,12.90
2017-08-13T23:38:07.923Z,12.90
2017-08-13T23:40:35.341Z,12.90
2017-08-13T23:43:02.746Z,13.00
2017-08-13T23:45:30.166Z,12.80
2017-08-13T23:47:57.581Z,12.70
2017-08-13T23:50:25.214Z,12.60
2017-08-13T23:52:52.608Z,12.70
2017-08-13T23:55:20.810Z,12.70
2017-08-13T23:57:48.368Z,12.70
